sensor_id;sensor_type;location;lat;lon;timestamp;temperature;humidity
6954;DHT22;3516;47.980;8.808;2024-02-21T04:58:41;1.20;99.90
6954;DHT22;3516;47.980;8.808;2024-02-21T05:01:08;1.10;99.90
6954;DHT22;3516;47.980;8.808;2024-02-21T05:03:34;1.10;99.90
6954;DHT22;3516;47.980;8.808;2024-02-21T05:06:01;1.10;99.90
6954;DHT22;3516;47.980;8.808;2024-02-21T05:08:27;1.10;99.90
6954;DHT22;3516;47.980;8.808;2024-02-21T05:10:54;1.10;99.90
6954;DHT22;3516;47.980;8.808;2024-02-21T05:13:20;1.10;99.90
6954;DHT22;3516;47.980;8.808;2024-02-21T05:15:48;1.10;99.90
6954;DHT22;3516;47.980;8.808;2024-02-21T05:18:15;1.10;99.90
6954;DHT22;3516;47.980;8.808;2024-02-21T05:20:42;1.10;99.90
6954;DHT22;3516;47.980;8.808;2024-02-21T05:23:08;1.10;99.90
6954;DHT22;3516;47.980;8.808;2024-02-21T05:25:35;1.00;99.90
6954;DHT22;3516;47.980;8.808;2024-02-21T05:28:01;1.00;99.90
6954;DHT22;3516;47.980;8.808;2024-02-21T05:30:28;1.00;99.90
6954;DHT22;3516;47.980;8.808;2024-02-21T05:32:56;0.90;99.90
6954;DHT22;3516;47.980;8.808;2024-02-21T05:35:25;0.90;99.90
6954;DHT22;3516;47.980;8.808;2024-02-21T05:37:51;0.80;99.90
6954;DHT22;3516;47.980;8.808;2024-02-21T05:40:18;0.80;99.90
6954;DHT22;3516;47.980;8.808;2024-02-21T05:42:44;0.80;99.90
6954;DHT22;3516;47.980;8.808;2024-02-21T05:45:11;0.70;99.90
6954;DHT22;3516;47.980;8.808;2024-02-21T05:47:38;0.70;99.90
6954;DHT22;3516;47.980;8.808;2024-02-21T05:50:06;0.60;99.90
6954;DHT22;3516;47.980;8.808;2024-02-21T05:52:33;0.60;99.90
6954;DHT22;3516;47.980;8.808;2024-02-21T05:54:59;0.60;99.90
6954;DHT22;3516;47.980;8.808;2024-02-21T05:57:26;0.50;99.90
6954;DHT22;3516;47.980;8.808;2024-02-21T05:59:52;0.60;99.90
6954;DHT22;3516;47.980;8.808;2024-02-21T06:02:19;0.60;99.90
6954;DHT22;3516;47.980;8.808;2024-02-21T06:04:46;0.60;99.90
6954;DHT22;3516;47.980;8.808;2024-02-21T06:07:14;0.60;99.90
6954;DHT22;3516;47.980;8.808;2024-02-21T06:09:41;0.60;99.90
6954;DHT22;3516;47.980;8.808;2024-02-21T06:12:07;0.60;99.90
6954;DHT22;3516;47.980;8.808;2024-02-21T06:14:34;0.60;99.90
6954;DHT22;3516;47.980;8.808;2024-02-21T06:17:00;0.70;99.90
6954;DHT22;3516;47.980;8.808;2024-02-21T11:52:15;10.80;99.90
6954;DHT22;3516;47.980;8.808;2024-02-21T11:54:44;10.80;99.90
6954;DHT22;3516;47.980;8.808;2024-02-21T11:57:11;10.70;99.90
6954;DHT22;3516;47.980;8.808;2024-02-21T11:59:39;10.60;99.90
6954;DHT22;3516;47.980;8.808;2024-02-21T12:02:06;10.60;99.90
6954;DHT22;3516;47.980;8.808;2024-02-21T12:04:32;10.60;99.90
6954;DHT22;3516;47.980;8.808;2024-02-21T12:06:59;10.60;99.90
6954;DHT22;3516;47.980;8.808;2024-02-21T12:09:27;10.50;99.90
6954;DHT22;3516;47.980;8.808;2024-02-21T12:11:57;10.40;99.90
6954;DHT22;3516;47.980;8.808;2024-02-21T12:14:24;10.50;99.90
6954;DHT22;3516;47.980;8.808;2024-02-21T12:16:51;10.50;99.90
6954;DHT22;3516;47.980;8.808;2024-02-21T12:19:17;10.40;99.90
6954;DHT22;3516;47.980;8.808;2024-02-21T12:21:44;10.30;99.90
6954;DHT22;3516;47.980;8.808;2024-02-21T12:24:11;10.20;99.90
6954;DHT22;3516;47.980;8.808;2024-02-21T12:26:39;10.20;99.90
6954;DHT22;3516;47.980;8.808;2024-02-21T12:29:06;10.20;99.90
6954;DHT22;3516;47.980;8.808;2024-02-21T12:31:34;10.20;99.90
6954;DHT22;3516;47.980;8.808;2024-02-21T12:34:01;10.20;99.90
6954;DHT22;3516;47.980;8.808;2024-02-21T12:36:29;10.20;99.90
6954;DHT22;3516;47.980;8.808;2024-02-21T12:38:56;10.30;99.90
6954;DHT22;3516;47.980;8.808;2024-02-21T12:41:23;10.30;99.90
6954;DHT22;3516;47.980;8.808;2024-02-21T12:43:52;10.20;99.90
6954;DHT22;3516;47.980;8.808;2024-02-21T12:46:19;10.30;99.90
6954;DHT22;3516;47.980;8.808;2024-02-21T12:48:45;10.40;99.90
6954;DHT22;3516;47.980;8.808;2024-02-21T12:51:12;10.40;99.90
6954;DHT22;3516;47.980;8.808;2024-02-21T12:53:41;10.50;99.90
6954;DHT22;3516;47.980;8.808;2024-02-21T12:56:08;10.60;99.90
6954;DHT22;3516;47.980;8.808;2024-02-21T12:58:34;10.60;99.90
6954;DHT22;3516;47.980;8.808;2024-02-21T13:01:03;10.60;99.90
6954;DHT22;3516;47.980;8.808;2024-02-21T13:03:29;10.60;99.90
6954;DHT22;3516;47.980;8.808;2024-02-21T13:05:56;10.80;99.90
6954;DHT22;3516;47.980;8.808;2024-02-21T13:08:24;10.70;99.90
6954;DHT22;3516;47.980;8.808;2024-02-21T13:10:51;10.70;99.90
6954;DHT22;3516;47.980;8.808;2024-02-21T13:13:17;10.80;99.90
6954;DHT22;3516;47.980;8.808;2024-02-21T13:15:45;10.80;99.90
6954;DHT22;3516;47.980;8.808;2024-02-21T13:18:13;10.80;99.90
6954;DHT22;3516;47.980;8.808;2024-02-21T13:20:40;10.80;99.90
6954;DHT22;3516;47.980;8.808;2024-02-21T13:23:06;10.70;99.90
6954;DHT22;3516;47.980;8.808;2024-02-21T13:25:33;10.70;99.90
6954;DHT22;3516;47.980;8.808;2024-02-21T13:28:00;10.70;99.90
6954;DHT22;3516;47.980;8.808;2024-02-21T13:30:27;10.70;99.90
6954;DHT22;3516;47.980;8.808;2024-02-21T13:32:53;10.80;99.90
6954;DHT22;3516;47.980;8.808;2024-02-21T13:35:22;10.80;99.90
6954;DHT22;3516;47.980;8.808;2024-02-21T13:37:48;10.90;99.90
6954;DHT22;3516;47.980;8.808;2024-02-21T13:40:16;10.90;99.90
6954;DHT22;3516;47.980;8.808;2024-02-21T13:42:43;10.90;99.90
6954;DHT22;3516;47.980;8.808;2024-02-21T13:45:09;10.80;99.90
6954;DHT22;3516;47.980;8.808;2024-02-21T13:47:36;10.90;99.90
6954;DHT22;3516;47.980;8.808;2024-02-21T13:50:04;11.00;99.90
6954;DHT22;3516;47.980;8.808;2024-02-21T13:52:35;11.00;99.90
6954;DHT22;3516;47.980;8.808;2024-02-21T13:55:02;10.90;99.90
6954;DHT22;3516;47.980;8.808;2024-02-21T13:57:29;10.90;99.90
6954;DHT22;3516;47.980;8.808;2024-02-21T13:59:56;10.90;99.90
6954;DHT22;3516;47.980;8.808;2024-02-21T14:02:22;10.90;99.90
6954;DHT22;3516;47.980;8.808;2024-02-21T14:04:51;10.80;99.90
6954;DHT22;3516;47.980;8.808;2024-02-21T14:07:17;10.70;99.90
6954;DHT22;3516;47.980;8.808;2024-02-21T14:09:46;10.80;99.90
6954;DHT22;3516;47.980;8.808;2024-02-21T14:12:12;10.70;99.90
6954;DHT22;3516;47.980;8.808;2024-02-21T14:14:39;10.60;99.90
6954;DHT22;3516;47.980;8.808;2024-02-21T14:17:07;10.40;99.90
6954;DHT22;3516;47.980;8.808;2024-02-21T14:19:34;10.30;99.90
6954;DHT22;3516;47.980;8.808;2024-02-21T14:22:03;10.30;99.90
6954;DHT22;3516;47.980;8.808;2024-02-21T14:24:29;10.20;99.90
6954;DHT22;3516;47.980;8.808;2024-02-21T14:26:58;10.20;99.90
6954;DHT22;3516;47.980;8.808;2024-02-21T14:29:25;10.10;99.90
6954;DHT22;3516;47.980;8.808;2024-02-21T14:31:51;10.10;99.90
6954;DHT22;3516;47.980;8.808;2024-02-21T14:34:18;10.10;99.90
6954;DHT22;3516;47.980;8.808;2024-02-21T14:36:44;10.10;99.90
6954;DHT22;3516;47.980;8.808;2024-02-21T14:39:11;10.10;99.90
6954;DHT22;3516;47.980;8.808;2024-02-21T14:41:37;10.10;99.90
6954;DHT22;3516;47.980;8.808;2024-02-21T14:44:06;10.00;99.90
6954;DHT22;3516;47.980;8.808;2024-02-21T14:46:35;10.00;99.90
6954;DHT22;3516;47.980;8.808;2024-02-21T14:49:03;10.00;99.90
6954;DHT22;3516;47.980;8.808;2024-02-21T14:51:29;10.00;99.90
6954;DHT22;3516;47.980;8.808;2024-02-21T14:53:56;9.90;99.90
6954;DHT22;3516;47.980;8.808;2024-02-21T14:56:23;9.80;99.90
6954;DHT22;3516;47.980;8.808;2024-02-21T14:58:49;9.70;99.90
6954;DHT22;3516;47.980;8.808;2024-02-21T15:01:17;9.70;99.90
6954;DHT22;3516;47.980;8.808;2024-02-21T15:03:44;9.60;99.90
6954;DHT22;3516;47.980;8.808;2024-02-21T15:06:10;9.60;99.90
6954;DHT22;3516;47.980;8.808;2024-02-21T15:08:37;9.50;99.90
6954;DHT22;3516;47.980;8.808;2024-02-21T15:11:03;9.40;99.90
6954;DHT22;3516;47.980;8.808;2024-02-21T15:13:30;9.40;99.90
6954;DHT22;3516;47.980;8.808;2024-02-21T15:15:56;9.30;99.90
6954;DHT22;3516;47.980;8.808;2024-02-21T15:18:24;9.30;99.90
6954;DHT22;3516;47.980;8.808;2024-02-21T15:20:51;9.30;99.90
6954;DHT22;3516;47.980;8.808;2024-02-21T15:23:17;9.30;99.90
6954;DHT22;3516;47.980;8.808;2024-02-21T15:25:45;9.30;99.90
6954;DHT22;3516;47.980;8.808;2024-02-21T15:28:12;9.20;99.90
6954;DHT22;3516;47.980;8.808;2024-02-21T15:30:38;9.20;99.90
6954;DHT22;3516;47.980;8.808;2024-02-21T15:33:05;9.20;99.90
6954;DHT22;3516;47.980;8.808;2024-02-21T15:35:33;9.20;99.90
6954;DHT22;3516;47.980;8.808;2024-02-21T15:37:59;9.10;99.90
6954;DHT22;3516;47.980;8.808;2024-02-21T15:40:26;9.10;99.90
6954;DHT22;3516;47.980;8.808;2024-02-21T15:42:52;9.00;99.90
6954;DHT22;3516;47.980;8.808;2024-02-21T15:45:19;9.00;99.90
6954;DHT22;3516;47.980;8.808;2024-02-21T15:47:46;9.00;99.90
6954;DHT22;3516;47.980;8.808;2024-02-21T15:50:13;9.00;99.90
6954;DHT22;3516;47.980;8.808;2024-02-21T15:52:41;9.00;99.90
6954;DHT22;3516;47.980;8.808;2024-02-21T15:55:08;8.90;99.90
6954;DHT22;3516;47.980;8.808;2024-02-21T15:57:37;8.80;99.90
6954;DHT22;3516;47.980;8.808;2024-02-21T16:00:04;8.80;99.90
6954;DHT22;3516;47.980;8.808;2024-02-21T16:02:31;8.70;99.90
6954;DHT22;3516;47.980;8.808;2024-02-21T16:04:57;8.70;99.90
6954;DHT22;3516;47.980;8.808;2024-02-21T16:07:24;8.60;99.90
6954;DHT22;3516;47.980;8.808;2024-02-21T16:09:52;8.50;99.90
6954;DHT22;3516;47.980;8.808;2024-02-21T16:12:18;8.50;99.90
6954;DHT22;3516;47.980;8.808;2024-02-21T16:14:45;8.50;99.90
6954;DHT22;3516;47.980;8.808;2024-02-21T16:17:13;8.40;99.90
6954;DHT22;3516;47.980;8.808;2024-02-21T16:19:39;8.40;99.90
6954;DHT22;3516;47.980;8.808;2024-02-21T16:22:06;8.40;99.90
6954;DHT22;3516;47.980;8.808;2024-02-21T16:24:32;8.30;99.90
6954;DHT22;3516;47.980;8.808;2024-02-21T16:27:00;8.30;99.90
6954;DHT22;3516;47.980;8.808;2024-02-21T16:29:34;8.20;99.90
6954;DHT22;3516;47.980;8.808;2024-02-21T16:32:00;8.20;99.90
6954;DHT22;3516;47.980;8.808;2024-02-21T16:34:27;8.20;99.90
6954;DHT22;3516;47.980;8.808;2024-02-21T16:36:54;8.10;99.90
6954;DHT22;3516;47.980;8.808;2024-02-21T16:39:22;8.10;99.90
6954;DHT22;3516;47.980;8.808;2024-02-21T16:41:49;8.10;99.90
6954;DHT22;3516;47.980;8.808;2024-02-21T16:44:20;8.00;99.90
6954;DHT22;3516;47.980;8.808;2024-02-21T16:46:46;8.00;99.90
6954;DHT22;3516;47.980;8.808;2024-02-21T16:49:13;8.00;99.90
6954;DHT22;3516;47.980;8.808;2024-02-21T16:51:40;7.90;99.90
6954;DHT22;3516;47.980;8.808;2024-02-21T16:54:06;7.90;99.90
6954;DHT22;3516;47.980;8.808;2024-02-21T16:56:34;7.80;99.90
6954;DHT22;3516;47.980;8.808;2024-02-21T16:59:01;7.80;99.90
6954;DHT22;3516;47.980;8.808;2024-02-21T17:01:33;7.80;99.90
6954;DHT22;3516;47.980;8.808;2024-02-21T17:04:00;7.80;99.90
6954;DHT22;3516;47.980;8.808;2024-02-21T17:06:27;7.70;99.90
6954;DHT22;3516;47.980;8.808;2024-02-21T17:08:54;7.80;99.90
6954;DHT22;3516;47.980;8.808;2024-02-21T17:11:21;7.70;99.90
6954;DHT22;3516;47.980;8.808;2024-02-21T17:13:48;7.70;99.90
6954;DHT22;3516;47.980;8.808;2024-02-21T17:16:14;7.70;99.90
6954;DHT22;3516;47.980;8.808;2024-02-21T17:18:42;7.60;99.90
6954;DHT22;3516;47.980;8.808;2024-02-21T17:21:10;7.60;99.90
6954;DHT22;3516;47.980;8.808;2024-02-21T17:23:37;7.60;99.90
6954;DHT22;3516;47.980;8.808;2024-02-21T17:26:05;7.60;99.90
6954;DHT22;3516;47.980;8.808;2024-02-21T17:28:31;7.60;99.90
6954;DHT22;3516;47.980;8.808;2024-02-21T17:30:58;7.60;99.90
6954;DHT22;3516;47.980;8.808;2024-02-21T17:33:25;7.60;99.90
6954;DHT22;3516;47.980;8.808;2024-02-21T17:35:53;7.50;99.90
6954;DHT22;3516;47.980;8.808;2024-02-21T17:38:19;7.50;99.90
6954;DHT22;3516;47.980;8.808;2024-02-21T17:40:46;7.50;99.90
6954;DHT22;3516;47.980;8.808;2024-02-21T17:43:14;7.50;99.90
6954;DHT22;3516;47.980;8.808;2024-02-21T17:45:41;7.40;99.90
6954;DHT22;3516;47.980;8.808;2024-02-21T17:48:08;7.50;99.90
6954;DHT22;3516;47.980;8.808;2024-02-21T17:50:34;7.40;99.90
6954;DHT22;3516;47.980;8.808;2024-02-21T17:53:02;7.40;99.90
6954;DHT22;3516;47.980;8.808;2024-02-21T17:55:29;7.40;99.90
6954;DHT22;3516;47.980;8.808;2024-02-21T17:57:55;7.40;99.90
6954;DHT22;3516;47.980;8.808;2024-02-21T18:00:22;7.40;99.90
6954;DHT22;3516;47.980;8.808;2024-02-21T18:02:50;7.30;99.90
6954;DHT22;3516;47.980;8.808;2024-02-21T18:05:16;7.30;99.90
6954;DHT22;3516;47.980;8.808;2024-02-21T18:07:43;7.30;99.90
6954;DHT22;3516;47.980;8.808;2024-02-21T18:10:11;7.30;99.90
6954;DHT22;3516;47.980;8.808;2024-02-21T18:12:38;7.30;99.90
6954;DHT22;3516;47.980;8.808;2024-02-21T18:15:05;7.30;99.90
6954;DHT22;3516;47.980;8.808;2024-02-21T18:17:31;7.30;99.90
6954;DHT22;3516;47.980;8.808;2024-02-21T18:20:00;7.20;99.90
6954;DHT22;3516;47.980;8.808;2024-02-21T18:22:28;7.20;99.90
6954;DHT22;3516;47.980;8.808;2024-02-21T18:24:55;7.20;99.90
6954;DHT22;3516;47.980;8.808;2024-02-21T18:27:23;7.20;99.90
6954;DHT22;3516;47.980;8.808;2024-02-21T18:29:50;7.20;99.90
6954;DHT22;3516;47.980;8.808;2024-02-21T18:32:16;7.20;99.90
6954;DHT22;3516;47.980;8.808;2024-02-21T18:34:43;7.20;99.90
6954;DHT22;3516;47.980;8.808;2024-02-21T18:37:10;7.20;99.90
6954;DHT22;3516;47.980;8.808;2024-02-21T18:39:36;7.20;99.90
6954;DHT22;3516;47.980;8.808;2024-02-21T18:42:03;7.10;99.90
6954;DHT22;3516;47.980;8.808;2024-02-21T18:44:31;7.10;99.90
6954;DHT22;3516;47.980;8.808;2024-02-21T18:46:58;7.10;99.90
6954;DHT22;3516;47.980;8.808;2024-02-21T18:49:25;7.00;99.90
6954;DHT22;3516;47.980;8.808;2024-02-21T18:51:51;7.00;99.90
6954;DHT22;3516;47.980;8.808;2024-02-21T18:54:20;7.00;99.90
6954;DHT22;3516;47.980;8.808;2024-02-21T18:56:47;7.00;99.90
6954;DHT22;3516;47.980;8.808;2024-02-21T18:59:14;7.00;99.90
6954;DHT22;3516;47.980;8.808;2024-02-21T19:01:42;7.00;99.90
6954;DHT22;3516;47.980;8.808;2024-02-21T19:04:08;6.90;99.90
6954;DHT22;3516;47.980;8.808;2024-02-21T19:06:35;6.90;99.90
6954;DHT22;3516;47.980;8.808;2024-02-21T19:09:02;6.90;99.90
6954;DHT22;3516;47.980;8.808;2024-02-21T19:11:29;6.80;99.90
6954;DHT22;3516;47.980;8.808;2024-02-21T19:13:55;6.80;99.90
6954;DHT22;3516;47.980;8.808;2024-02-21T19:16:22;6.80;99.90
6954;DHT22;3516;47.980;8.808;2024-02-21T19:18:49;6.90;99.90
6954;DHT22;3516;47.980;8.808;2024-02-21T19:21:16;6.90;99.90
6954;DHT22;3516;47.980;8.808;2024-02-21T19:23:44;6.80;99.90
6954;DHT22;3516;47.980;8.808;2024-02-21T19:26:10;6.80;99.90
6954;DHT22;3516;47.980;8.808;2024-02-21T19:28:37;6.70;99.90
6954;DHT22;3516;47.980;8.808;2024-02-21T19:31:10;6.70;99.90
6954;DHT22;3516;47.980;8.808;2024-02-21T19:33:37;6.60;99.90
6954;DHT22;3516;47.980;8.808;2024-02-21T19:36:05;6.60;99.90
6954;DHT22;3516;47.980;8.808;2024-02-21T19:38:34;6.60;99.90
6954;DHT22;3516;47.980;8.808;2024-02-21T19:41:01;6.60;99.90
6954;DHT22;3516;47.980;8.808;2024-02-21T19:43:27;6.60;99.90
6954;DHT22;3516;47.980;8.808;2024-02-21T19:45:54;6.60;99.90
6954;DHT22;3516;47.980;8.808;2024-02-21T19:48:20;6.50;99.90
6954;DHT22;3516;47.980;8.808;2024-02-21T19:50:49;6.50;99.90
6954;DHT22;3516;47.980;8.808;2024-02-21T19:53:17;6.50;99.90
6954;DHT22;3516;47.980;8.808;2024-02-21T19:55:44;6.50;99.90
6954;DHT22;3516;47.980;8.808;2024-02-21T19:58:10;6.40;99.90
6954;DHT22;3516;47.980;8.808;2024-02-21T20:00:37;6.50;99.90
6954;DHT22;3516;47.980;8.808;2024-02-21T20:03:04;6.50;99.90
6954;DHT22;3516;47.980;8.808;2024-02-21T20:05:32;6.50;99.90
6954;DHT22;3516;47.980;8.808;2024-02-21T20:07:59;6.50;99.90
6954;DHT22;3516;47.980;8.808;2024-02-21T20:10:27;6.40;99.90
6954;DHT22;3516;47.980;8.808;2024-02-21T20:12:54;6.40;99.90
6954;DHT22;3516;47.980;8.808;2024-02-21T20:15:21;6.40;99.90
6954;DHT22;3516;47.980;8.808;2024-02-21T20:17:48;6.40;99.90
6954;DHT22;3516;47.980;8.808;2024-02-21T20:20:15;6.40;99.90
6954;DHT22;3516;47.980;8.808;2024-02-21T20:22:44;6.40;99.90
6954;DHT22;3516;47.980;8.808;2024-02-21T20:25:11;6.50;99.90
6954;DHT22;3516;47.980;8.808;2024-02-21T20:27:41;6.50;99.90
6954;DHT22;3516;47.980;8.808;2024-02-21T20:30:08;6.50;99.90
6954;DHT22;3516;47.980;8.808;2024-02-21T20:32:35;6.50;99.90
6954;DHT22;3516;47.980;8.808;2024-02-21T20:35:01;6.50;99.90
6954;DHT22;3516;47.980;8.808;2024-02-21T20:37:27;6.50;99.90
6954;DHT22;3516;47.980;8.808;2024-02-21T20:39:53;6.50;99.90
6954;DHT22;3516;47.980;8.808;2024-02-21T20:42:20;6.50;99.90
6954;DHT22;3516;47.980;8.808;2024-02-21T20:44:50;6.50;99.90
6954;DHT22;3516;47.980;8.808;2024-02-21T20:47:18;6.50;99.90
6954;DHT22;3516;47.980;8.808;2024-02-21T20:49:48;6.40;99.90
6954;DHT22;3516;47.980;8.808;2024-02-21T20:52:18;6.50;99.90
6954;DHT22;3516;47.980;8.808;2024-02-21T20:54:45;6.40;99.90
6954;DHT22;3516;47.980;8.808;2024-02-21T20:57:11;6.40;99.90
6954;DHT22;3516;47.980;8.808;2024-02-21T20:59:38;6.40;99.90
6954;DHT22;3516;47.980;8.808;2024-02-21T21:02:06;6.40;99.90
6954;DHT22;3516;47.980;8.808;2024-02-21T21:04:32;6.30;99.90
6954;DHT22;3516;47.980;8.808;2024-02-21T21:06:59;6.30;99.90
6954;DHT22;3516;47.980;8.808;2024-02-21T21:09:26;6.30;99.90
6954;DHT22;3516;47.980;8.808;2024-02-21T21:11:53;6.40;99.90
6954;DHT22;3516;47.980;8.808;2024-02-21T21:14:20;6.30;99.90
6954;DHT22;3516;47.980;8.808;2024-02-21T21:16:46;6.40;99.90
6954;DHT22;3516;47.980;8.808;2024-02-21T21:19:14;6.30;99.90
6954;DHT22;3516;47.980;8.808;2024-02-21T21:21:41;6.30;99.90
6954;DHT22;3516;47.980;8.808;2024-02-21T21:24:07;6.30;99.90
